createdAt,value
2023-03-20T00:02:55.120Z,26.7
2023-03-20T00:08:47.937Z,25
2023-03-20T00:14:27.217Z,24.6
2023-03-20T00:20:19.586Z,24
2023-03-20T00:25:57.361Z,23.8
2023-03-20T00:31:49.708Z,23.4
2023-03-20T00:37:27.271Z,24.1
2023-03-20T00:43:04.365Z,25.6
2023-03-20T00:48:41.725Z,25.4
2023-03-20T00:54:19.662Z,25.8
2023-03-20T01:00:12.048Z,26.7
2023-03-20T01:06:05.087Z,26.7
2023-03-20T01:11:57.949Z,25.2
2023-03-20T01:17:20.277Z,24.7
2023-03-20T01:23:11.508Z,24.1
2023-03-20T01:28:49.832Z,23.9
2023-03-20T01:34:42.118Z,23.6
2023-03-20T01:40:35.510Z,24.1
2023-03-20T01:46:28.144Z,25.4
2023-03-20T01:52:20.150Z,26.6
2023-03-20T01:57:56.486Z,26.7
2023-03-20T02:03:48.877Z,25.3
2023-03-20T02:09:26.702Z,24.8
2023-03-20T02:15:03.515Z,24.1
2023-03-20T02:20:25.719Z,23.8
2023-03-20T02:26:18.139Z,23.6
2023-03-20T02:32:10.985Z,23.8
2023-03-20T02:37:49.986Z,24.7
2023-03-20T02:43:43.208Z,26.1
2023-03-20T02:49:36.279Z,26.7
2023-03-20T02:55:13.883Z,26.2
2023-03-20T03:01:06.747Z,25
2023-03-20T03:06:43.883Z,24.4
2023-03-20T03:12:05.599Z,23.9
2023-03-20T03:17:44.012Z,23.8
2023-03-20T03:23:21.280Z,23.4
2023-03-20T03:29:07.246Z,24
2023-03-20T03:34:59.997Z,25.4
2023-03-20T03:40:37.397Z,26.5
2023-03-20T03:46:14.680Z,26.8
2023-03-20T03:51:51.452Z,25.6
2023-03-20T03:57:28.571Z,24.9
2023-03-20T04:03:06.284Z,24.3
2023-03-20T04:09:01.479Z,23.9
2023-03-20T04:14:38.023Z,23.6
2023-03-20T04:20:18.343Z,23.4
2023-03-20T04:25:56.205Z,24.2
2023-03-20T04:31:52.155Z,25.4
2023-03-20T04:37:44.599Z,25.1
2023-03-20T04:43:23.373Z,25.6
2023-03-20T04:48:59.341Z,26.6
2023-03-20T04:54:51.627Z,26.8
2023-03-20T05:00:28.386Z,25.3
2023-03-20T05:06:25.050Z,24.8
2023-03-20T05:12:17.680Z,24.2
2023-03-20T05:17:55.792Z,23.8
2023-03-20T05:23:47.591Z,23.6
2023-03-20T05:29:40.355Z,24
2023-03-20T05:35:35.313Z,24.9
2023-03-20T05:41:28.619Z,26.3
2023-03-20T05:47:05.684Z,26.7
2023-03-20T05:52:42.689Z,25.9
2023-03-20T05:58:38.423Z,24.9
2023-03-20T06:04:31.691Z,24.3
2023-03-20T06:10:23.831Z,23.8
2023-03-20T06:16:18.640Z,23.6
2023-03-20T06:22:11.627Z,23.5
2023-03-20T06:28:04.943Z,24.4
2023-03-20T06:33:58.507Z,26.1
2023-03-20T06:39:50.814Z,26.7
2023-03-20T06:45:58.040Z,25.9
2023-03-20T06:51:34.580Z,24.9
2023-03-20T06:57:26.477Z,24.3
2023-03-20T07:03:19.250Z,23.9
2023-03-20T07:09:12.550Z,24.1
2023-03-20T07:15:05.246Z,25
2023-03-20T07:21:17.152Z,26.5
2023-03-20T07:27:22.325Z,26.8
2023-03-20T07:33:16.147Z,26.6
2023-03-20T07:39:09.900Z,25.3
2023-03-20T07:45:02.947Z,25.7
2023-03-20T07:50:57.906Z,26.8
2023-03-20T07:56:50.936Z,26.8
2023-03-20T08:02:42.998Z,26.4
2023-03-20T08:08:38.609Z,25.1
2023-03-20T08:14:32.158Z,26.8
2023-03-20T08:20:41.497Z,27.1
2023-03-20T08:26:34.309Z,26.8
2023-03-20T08:32:23.043Z,25.3
2023-03-20T08:38:32.300Z,26.3
2023-03-20T08:44:24.952Z,27.1
2023-03-20T08:50:17.709Z,26.9
2023-03-20T08:56:10.530Z,26.6
2023-03-20T09:02:19.497Z,25.4
2023-03-20T09:07:57.662Z,27.2
2023-03-20T09:13:23.695Z,27.1
2023-03-20T09:19:03.721Z,26.8
2023-03-20T09:24:40.787Z,25.7
2023-03-20T09:30:34.024Z,26.3
2023-03-20T09:36:14.448Z,27.3
2023-03-20T09:42:15.801Z,27.1
2023-03-20T09:48:25.269Z,26.8
2023-03-20T09:54:18.051Z,25.6
2023-03-20T10:00:24.873Z,27.3
2023-03-20T10:06:04.749Z,27.3
2023-03-20T10:11:58.117Z,27
2023-03-20T10:17:51.912Z,26
2023-03-20T10:23:43.216Z,26.5
2023-03-20T10:29:22.308Z,27.6
2023-03-20T10:35:16.229Z,27.3
2023-03-20T10:41:08.931Z,26.9
2023-03-20T10:47:02.156Z,26.5
2023-03-20T10:52:40.594Z,26.1
2023-03-20T10:58:32.973Z,25.8
2023-03-20T11:03:55.576Z,25.4
2023-03-20T11:09:59.893Z,25.1
2023-03-20T11:15:55.512Z,24.7
2023-03-20T11:21:51.060Z,24.4
2023-03-20T11:27:46.323Z,24.1
2023-03-20T11:33:51.565Z,23.8
2023-03-20T11:39:56.785Z,23.6
2023-03-20T11:45:50.023Z,23.4
2023-03-20T11:51:43.134Z,23.2
2023-03-20T11:57:39.720Z,23
2023-03-20T12:03:33.871Z,22.8
2023-03-20T12:09:27.047Z,22.6
2023-03-20T12:15:20.049Z,22.5
2023-03-20T12:21:13.465Z,22.4
2023-03-20T12:27:06.300Z,22.2
2023-03-20T12:32:59.828Z,22.1
2023-03-20T12:38:53.837Z,21.9
2023-03-20T12:44:45.870Z,21.9
2023-03-20T12:50:10.730Z,21.8
2023-03-20T12:56:04.414Z,21.8
2023-03-20T13:01:56.998Z,21.7
2023-03-20T13:07:33.724Z,21.6
2023-03-20T13:13:26.778Z,21.5
2023-03-20T13:19:21.692Z,21.5
2023-03-20T13:24:46.116Z,21.5
2023-03-20T13:30:39.510Z,21.4
2023-03-20T13:36:34.999Z,21.4
2023-03-20T13:42:37.575Z,21.3
2023-03-20T13:48:35.174Z,21.3
2023-03-20T13:54:28.918Z,21.2
2023-03-20T14:00:06.864Z,21.3
2023-03-20T14:32:56.548Z,21.1
2023-03-20T14:44:27.051Z,21.1
2023-03-20T14:50:23.126Z,21.1
2023-03-20T14:56:16.142Z,21.1
2023-03-20T15:02:07.463Z,21
2023-03-20T15:07:59.715Z,21
2023-03-20T15:13:54.745Z,20.9
2023-03-20T15:19:48.734Z,20.9
2023-03-20T15:25:42.733Z,20.9
2023-03-20T15:31:38.159Z,20.9
2023-03-20T15:37:30.141Z,20.9
2023-03-20T15:43:35.768Z,20.9
2023-03-20T15:49:50.668Z,20.8
2023-03-20T15:55:28.241Z,20.8
2023-03-20T16:01:01.302Z,20.8
2023-03-20T16:06:57.130Z,20.7
2023-03-20T16:12:50.682Z,20.7
2023-03-20T16:18:43.564Z,20.6
2023-03-20T16:24:36.929Z,20.7
2023-03-20T16:30:28.474Z,20.6
2023-03-20T16:36:23.690Z,20.7
2023-03-20T16:42:17.317Z,20.7
2023-03-20T16:48:10.147Z,20.6
2023-03-20T16:54:02.656Z,20.6
2023-03-20T16:59:40.271Z,20.6
2023-03-20T17:05:01.877Z,20.6
2023-03-20T17:10:39.537Z,20.6
2023-03-20T17:16:33.569Z,20.6
2023-03-20T17:22:25.717Z,20.6
2023-03-20T17:28:19.969Z,20.6
2023-03-20T17:34:14.377Z,20.6
2023-03-20T17:39:36.107Z,20.6
2023-03-20T17:45:29.542Z,20.6
2023-03-20T17:51:40.900Z,20.6
2023-03-20T17:57:18.776Z,20.6
2023-03-20T18:03:12.992Z,20.6
2023-03-20T18:09:06.921Z,20.6
2023-03-20T18:14:46.157Z,20.6
2023-03-20T18:20:39.102Z,20.6
2023-03-20T18:26:17.311Z,20.6
2023-03-20T18:31:54.061Z,20.6
2023-03-20T18:36:44.952Z,20.6
2023-03-20T18:42:07.330Z,20.6
2023-03-20T18:47:13.067Z,20.6
2023-03-20T18:52:35.768Z,20.6
2023-03-20T18:58:15.512Z,20.6
2023-03-20T19:04:08.361Z,20.7
2023-03-20T19:09:45.638Z,20.7
2023-03-20T19:15:09.264Z,20.8
2023-03-20T19:21:02.733Z,20.7
2023-03-20T19:27:09.828Z,20.7
2023-03-20T19:33:06.590Z,20.8
2023-03-20T19:40:20.138Z,20.7
2023-03-20T19:47:28.262Z,20.7
2023-03-20T19:53:43.359Z,20.8
2023-03-20T19:59:17.160Z,20.8
2023-03-20T20:05:58.341Z,20.7
2023-03-20T20:13:14.520Z,20.8
2023-03-20T20:19:31.213Z,21.6
2023-03-20T20:27:14.992Z,22.8
2023-03-20T20:33:12.996Z,25.3
2023-03-20T20:42:10.541Z,24.4
2023-03-20T20:48:20.067Z,25.6
2023-03-20T20:54:21.597Z,24.6
2023-03-20T21:00:48.901Z,26
2023-03-20T21:07:14.427Z,26.6
2023-03-20T21:13:32.174Z,25.4
2023-03-20T21:19:06.679Z,26.6
2023-03-20T21:25:39.964Z,26.7
2023-03-20T21:31:59.669Z,25.1
2023-03-20T21:39:32.715Z,26.6
2023-03-20T22:03:10.706Z,25.1
2023-03-20T22:42:51.008Z,27
2023-03-20T22:50:49.594Z,27
2023-03-20T22:57:08.931Z,26.8
2023-03-20T23:03:26.122Z,25.8
2023-03-20T23:09:42.186Z,25.9
2023-03-20T23:15:35.719Z,27.1
2023-03-20T23:21:34.143Z,26.9
2023-03-20T23:27:18.397Z,26.6
2023-03-20T23:33:30.276Z,25.2
2023-03-20T23:39:38.885Z,26.8
2023-03-20T23:46:27.018Z,27.1
2023-03-20T23:53:20.835Z,26.8
2023-03-20T23:59:34.879Z,25.3
